EST,Max TemperatureF,Mean TemperatureF,Min TemperatureF,Max Dew PointF,MeanDew PointF,Min DewpointF,Max Humidity, Mean Humidity, Min Humidity, Max Sea Level PressureIn, Mean Sea Level PressureIn, Min Sea Level PressureIn, Max VisibilityMiles, Mean VisibilityMiles, Min VisibilityMiles, Max Wind SpeedMPH, Mean Wind SpeedMPH, Max Gust SpeedMPH,PrecipitationIn, CloudCover, Events, WindDirDegrees
2011-12-1,63,49,35,38,35,30,92,61,30,30.39,30.28,30.14,10,10,10,10,4,14,0.00,0,,360
2011-12-2,66,49,31,37,31,23,92,56,20,30.47,30.41,30.36,10,10,10,10,1,13,0.00,1,,24
2011-12-3,69,50,31,50,41,29,92,67,42,30.51,30.46,30.43,10,10,8,14,6,20,0.00,1,,59
2011-12-4,73,61,49,57,52,46,93,71,49,30.42,30.35,30.28,10,10,10,16,7,21,T,6,Rain,46
2011-12-5,77,67,57,61,58,55,93,75,57,30.26,30.19,30.13,10,8,2,16,5,21,T,6,Rain,92
2011-12-6,78,65,52,64,57,52,100,78,56,30.16,30.12,30.04,10,5,0,14,5,17,0.00,3,Fog,168
2011-12-7,78,60,42,64,53,34,93,74,54,30.11,29.92,29.75,10,9,1,32,13,46,0.05,5,Rain,236
2011-12-8,56,46,36,36,32,27,85,60,35,30.30,30.25,30.12,10,10,10,15,6,18,0.00,2,,33
2011-12-9,70,54,38,49,42,34,85,66,47,30.27,30.23,30.17,10,10,10,12,5,15,0.00,6,,356
2011-12-10,56,50,44,47,42,33,82,72,61,30.38,30.29,30.20,10,10,9,13,7,16,T,6,Rain,22
2011-12-11,56,50,44,39,34,31,65,57,48,30.45,30.40,30.37,10,10,10,18,12,25,0.00,7,,31
2011-12-12,50,46,42,47,41,33,96,73,50,30.45,30.40,30.35,10,8,2,15,7,21,0.64,7,Rain,14
2011-12-13,70,56,41,48,44,39,96,68,40,30.45,30.40,30.36,10,10,10,9,3,16,0.00,0,,7
2011-12-14,70,56,41,51,46,39,96,70,44,30.41,30.35,30.31,10,10,9,10,3,13,0.00,1,,102
2011-12-15,76,61,46,56,50,45,93,70,46,30.32,30.26,30.19,10,8,3,13,4,16,0.00,2,Fog,176
2011-12-16,76,62,47,56,53,47,100,73,46,30.24,30.19,30.15,10,9,7,15,4,21,0.00,2,Fog,234
2011-12-17,69,58,45,56,46,35,93,64,34,30.25,30.17,30.12,10,10,10,13,8,17,0.00,2,,291
2011-12-18,62,49,36,41,34,26,92,64,36,30.39,30.31,30.23,10,10,9,12,4,15,0.00,0,,335
2011-12-19,69,53,36,50,44,34,92,70,47,30.36,30.30,30.25,10,10,7,15,5,20,0.00,2,Fog,103
2011-12-20,75,59,43,54,48,42,93,69,44,30.26,30.21,30.14,10,7,0,20,5,25,0.00,3,Fog,169
2011-12-21,74,64,53,61,58,51,93,77,61,30.16,30.10,30.04,10,10,10,18,8,24,T,6,Rain,184
2011-12-22,82,72,62,60,58,55,90,66,42,30.14,30.08,30.01,10,10,10,23,9,29,0.00,4,,189
2011-12-23,72,65,57,64,58,47,87,70,53,30.23,30.12,30.03,10,8,1,13,6,15,T,7,Rain,271
2011-12-24,65,56,47,47,45,42,93,69,44,30.39,30.33,30.23,10,10,10,13,6,16,0.00,2,,48
2011-12-25,64,56,48,54,50,43,93,79,64,30.36,30.30,30.22,10,6,1,13,5,17,0.30,7,Rain,5
2011-12-26,60,54,47,50,41,29,96,63,29,30.35,30.26,30.17,10,9,3,17,8,21,0.00,5,,38
2011-12-27,70,61,51,63,53,35,87,64,40,30.13,29.90,29.76,10,9,3,28,16,39,0.16,7,Rain,208
2011-12-28,58,49,39,37,33,30,79,59,38,30.15,30.08,29.99,10,10,10,31,9,38,0.00,0,,277
2011-12-29,62,48,34,40,33,29,89,59,29,30.19,30.12,30.07,10,10,10,12,4,15,0.00,2,,210
2011-12-30,67,52,36,49,42,34,85,65,44,30.19,30.11,30.06,10,10,10,16,5,18,0.00,2,,174
2011-12-31,71,57,43,54,47,36,86,58,29,30.20,30.12,30.05,10,10,10,17,7,23,0.00,2,,247